createdAt,value
2023-05-10T00:00:41.411Z,81.39
2023-05-10T00:03:07.945Z,81.50
2023-05-10T00:05:34.460Z,81.35
2023-05-10T00:08:00.859Z,81.31
2023-05-10T00:10:27.437Z,81.66
2023-05-10T00:12:53.910Z,81.38
2023-05-10T00:15:20.369Z,81.50
2023-05-10T00:17:46.829Z,81.28
2023-05-10T00:20:13.523Z,81.45
2023-05-10T00:22:40.065Z,81.45
2023-05-10T00:25:07.292Z,81.48
2023-05-10T00:27:33.849Z,81.46
2023-05-10T00:30:00.307Z,81.54
2023-05-10T00:32:26.901Z,81.52
2023-05-10T00:34:53.359Z,81.56
2023-05-10T00:37:19.759Z,81.55
2023-05-10T00:39:48.666Z,81.42
2023-05-10T00:42:15.068Z,81.70
2023-05-10T00:44:41.731Z,81.65
2023-05-10T00:47:08.919Z,81.58
2023-05-10T00:49:36.620Z,81.80
2023-05-10T00:52:04.048Z,81.66
2023-05-10T00:54:31.222Z,81.80
2023-05-10T00:56:58.290Z,81.70
2023-05-10T00:59:24.796Z,81.63
2023-05-10T01:01:52.778Z,81.59
2023-05-10T01:04:21.084Z,81.50
2023-05-10T01:06:47.663Z,81.20
2023-05-10T01:09:14.179Z,81.64
2023-05-10T01:11:40.978Z,81.64
2023-05-10T01:14:07.949Z,81.50
2023-05-10T01:16:38.416Z,81.41
2023-05-10T01:19:19.640Z,82.02
2023-05-10T01:22:04.819Z,81.48
2023-05-10T01:25:08.816Z,81.67
2023-05-10T01:28:07.213Z,81.97
2023-05-10T01:31:04.573Z,81.60
2023-05-10T01:33:47.786Z,82.12
2023-05-10T01:36:33.424Z,81.57
2023-05-10T01:39:31.203Z,81.84
2023-05-10T01:42:03.209Z,81.59
2023-05-10T01:44:37.153Z,82.00
2023-05-10T01:47:11.374Z,82.10
2023-05-10T01:49:53.249Z,82.02
2023-05-10T01:52:23.394Z,81.84
2023-05-10T01:54:56.951Z,82.04
2023-05-10T01:57:28.818Z,82.09
2023-05-10T01:59:56.371Z,82.04
2023-05-10T02:02:25.498Z,82.06
2023-05-10T02:04:54.382Z,81.98
2023-05-10T02:07:21.945Z,82.21
2023-05-10T02:09:49.030Z,82.21
2023-05-10T02:12:18.182Z,82.24
2023-05-10T02:14:46.168Z,82.20
2023-05-10T02:17:13.595Z,82.19
2023-05-10T02:19:43.067Z,82.23
2023-05-10T02:22:10.671Z,82.23
2023-05-10T02:24:38.289Z,82.09
2023-05-10T02:27:05.959Z,82.15
2023-05-10T02:29:33.725Z,82.10
2023-05-10T02:32:03.019Z,82.10
2023-05-10T02:34:31.759Z,82.14
2023-05-10T02:37:00.017Z,82.14
2023-05-10T02:39:29.831Z,82.07
2023-05-10T02:41:58.421Z,81.99
2023-05-10T02:44:28.962Z,81.88
2023-05-10T02:46:57.057Z,81.53
2023-05-10T02:49:23.624Z,81.91
2023-05-10T02:51:57.589Z,81.93
2023-05-10T02:54:30.802Z,81.99
2023-05-10T02:57:03.887Z,81.76
2023-05-10T02:59:30.351Z,81.86
2023-05-10T03:01:56.814Z,82.06
2023-05-10T03:04:23.410Z,81.83
2023-05-10T03:06:49.940Z,82.09
2023-05-10T03:09:16.671Z,82.10
2023-05-10T03:12:02.667Z,82.30
2023-05-10T03:14:47.984Z,82.32
2023-05-10T03:17:31.264Z,82.13
2023-05-10T03:20:04.279Z,82.34
2023-05-10T03:22:38.510Z,82.33
2023-05-10T03:25:10.171Z,82.47
2023-05-10T03:27:38.728Z,82.47
2023-05-10T03:30:07.268Z,82.58
2023-05-10T03:32:35.399Z,82.33
2023-05-10T03:35:03.258Z,82.41
2023-05-10T03:37:29.674Z,82.26
2023-05-10T03:39:56.202Z,82.18
2023-05-10T03:42:22.642Z,82.27
2023-05-10T03:44:50.407Z,82.25
2023-05-10T03:47:16.944Z,82.08
2023-05-10T03:49:43.393Z,82.36
2023-05-10T03:52:09.950Z,82.37
2023-05-10T03:54:36.348Z,82.17
2023-05-10T03:57:03.923Z,82.32
2023-05-10T03:59:30.882Z,82.39
2023-05-10T04:01:57.404Z,82.41
2023-05-10T04:04:24.249Z,82.25
2023-05-10T04:06:50.735Z,82.21
2023-05-10T04:09:18.133Z,82.29
2023-05-10T04:11:44.593Z,82.32
2023-05-10T04:14:11.070Z,82.48
2023-05-10T04:16:37.594Z,82.48
2023-05-10T04:19:04.753Z,82.36
2023-05-10T04:21:31.486Z,82.47
2023-05-10T04:23:57.898Z,82.39
2023-05-10T04:26:26.043Z,82.32
2023-05-10T04:28:55.710Z,82.34
2023-05-10T04:31:22.569Z,82.35
2023-05-10T04:33:49.061Z,82.24
2023-05-10T04:36:15.460Z,82.07
2023-05-10T04:38:41.978Z,82.06
2023-05-10T04:41:09.380Z,82.17
2023-05-10T04:43:36.365Z,81.99
2023-05-10T04:46:03.250Z,82.37
2023-05-10T04:48:33.299Z,82.32
2023-05-10T04:50:59.753Z,82.32
2023-05-10T04:53:26.305Z,82.23
2023-05-10T04:55:52.718Z,82.23
2023-05-10T04:58:19.372Z,82.24
2023-05-10T05:00:45.810Z,82.12
2023-05-10T05:03:12.295Z,82.23
2023-05-10T05:05:38.775Z,82.11
2023-05-10T05:08:05.307Z,82.41
2023-05-10T05:10:31.718Z,82.32
2023-05-10T05:12:58.146Z,82.11
2023-05-10T05:15:24.682Z,82.27
2023-05-10T05:17:51.205Z,82.43
2023-05-10T05:20:18.274Z,82.38
2023-05-10T05:22:44.867Z,82.13
2023-05-10T05:25:11.437Z,82.04
2023-05-10T05:27:38.168Z,81.93
2023-05-10T05:30:05.283Z,81.83
2023-05-10T05:32:31.749Z,81.61
2023-05-10T05:34:58.283Z,81.75
2023-05-10T05:37:25.471Z,81.80
2023-05-10T05:39:52.221Z,81.61
2023-05-10T05:42:19.740Z,81.08
2023-05-10T05:44:46.657Z,81.07
2023-05-10T05:47:13.181Z,80.98
2023-05-10T05:49:40.323Z,80.72
2023-05-10T05:52:06.723Z,80.42
2023-05-10T05:54:33.402Z,80.85
2023-05-10T05:57:01.509Z,81.13
2023-05-10T05:59:28.361Z,80.96
2023-05-10T06:01:55.085Z,80.63
2023-05-10T06:04:21.768Z,80.31
2023-05-10T06:06:48.276Z,80.20
2023-05-10T06:09:14.964Z,80.61
2023-05-10T06:11:41.506Z,80.53
2023-05-10T06:14:08.859Z,80.43
2023-05-10T06:16:35.819Z,80.29
2023-05-10T06:19:03.287Z,80.34
2023-05-10T06:21:29.960Z,80.33
2023-05-10T06:23:56.453Z,80.52
2023-05-10T06:26:22.989Z,80.67
2023-05-10T06:28:49.424Z,80.19
2023-05-10T06:31:16.137Z,80.43
2023-05-10T06:33:42.681Z,80.53
2023-05-10T06:36:09.236Z,80.40
2023-05-10T06:38:35.728Z,80.52
2023-05-10T06:41:02.139Z,80.56
2023-05-10T06:43:29.787Z,80.28
2023-05-10T06:45:56.333Z,80.03
2023-05-10T06:48:22.931Z,79.68
2023-05-10T06:50:49.597Z,79.58
2023-05-10T06:53:16.400Z,79.66
2023-05-10T06:55:42.879Z,79.26
2023-05-10T06:58:09.291Z,79.02
2023-05-10T07:00:35.923Z,78.16
2023-05-10T07:03:02.420Z,78.99
2023-05-10T07:05:29.231Z,79.30
2023-05-10T07:07:55.709Z,79.10
2023-05-10T07:10:22.199Z,78.99
2023-05-10T07:12:49.070Z,79.00
2023-05-10T07:15:17.097Z,79.17
2023-05-10T07:17:45.928Z,79.00
2023-05-10T07:20:13.196Z,78.81
2023-05-10T07:22:39.619Z,79.06
2023-05-10T07:25:06.821Z,78.95
2023-05-10T07:27:33.561Z,79.11
2023-05-10T07:30:00.052Z,79.02
2023-05-10T07:32:26.714Z,79.03
2023-05-10T07:34:53.292Z,79.09
2023-05-10T07:37:19.721Z,79.14
2023-05-10T07:39:46.257Z,78.93
2023-05-10T07:42:12.715Z,78.67
2023-05-10T07:44:39.175Z,78.62
2023-05-10T07:47:05.666Z,79.06
2023-05-10T07:49:32.094Z,78.67
2023-05-10T07:51:58.501Z,78.81
2023-05-10T07:54:24.902Z,78.53
2023-05-10T07:56:51.982Z,78.82
2023-05-10T07:59:18.886Z,78.86
2023-05-10T08:01:45.850Z,78.68
2023-05-10T08:04:12.737Z,78.36
2023-05-10T08:06:39.976Z,78.22
2023-05-10T08:09:06.463Z,77.93
2023-05-10T08:11:34.851Z,77.76
2023-05-10T08:14:01.591Z,76.86
2023-05-10T08:16:28.520Z,77.09
2023-05-10T08:18:56.432Z,77.34
2023-05-10T08:21:23.137Z,77.00
2023-05-10T08:23:50.071Z,76.85
2023-05-10T08:26:16.601Z,76.15
2023-05-10T08:28:43.049Z,75.85
2023-05-10T08:31:09.520Z,75.54
2023-05-10T08:33:35.991Z,74.76
2023-05-10T08:36:02.412Z,74.68
2023-05-10T08:38:28.913Z,74.70
2023-05-10T08:40:59.717Z,74.08
2023-05-10T08:43:30.158Z,73.92
2023-05-10T08:46:00.029Z,73.43
2023-05-10T08:48:29.456Z,73.15
2023-05-10T08:50:59.871Z,73.33
2023-05-10T08:53:28.287Z,73.65
2023-05-10T08:55:56.559Z,73.04
2023-05-10T08:58:23.225Z,73.36
2023-05-10T09:00:52.458Z,71.67
2023-05-10T09:03:19.318Z,73.32
2023-05-10T09:05:46.157Z,73.14
2023-05-10T09:08:14.274Z,73.09
2023-05-10T09:10:41.282Z,73.57
2023-05-10T09:13:10.071Z,72.62
2023-05-10T09:15:36.500Z,72.12
2023-05-10T09:18:03.509Z,72.93
2023-05-10T09:20:29.969Z,72.12
2023-05-10T09:22:56.460Z,72.49
2023-05-10T09:25:23.631Z,71.82
2023-05-10T09:27:50.358Z,72.38
2023-05-10T09:30:30.842Z,72.07
2023-05-10T09:32:58.561Z,71.05
2023-05-10T09:35:29.459Z,69.69
2023-05-10T09:38:01.708Z,69.51
2023-05-10T09:40:29.790Z,68.76
2023-05-10T09:42:58.992Z,69.83
2023-05-10T09:45:27.767Z,70.15
2023-05-10T09:47:54.552Z,70.49
2023-05-10T09:50:22.441Z,70.26
2023-05-10T09:52:54.992Z,70.51
2023-05-10T09:55:23.877Z,70.66
2023-05-10T09:57:59.353Z,70.80
2023-05-10T10:00:26.018Z,70.57
2023-05-10T10:02:57.570Z,69.38
2023-05-10T10:05:35.150Z,69.56
2023-05-10T10:08:04.455Z,70.00
2023-05-10T10:10:32.299Z,69.65
2023-05-10T10:12:59.300Z,70.17
2023-05-10T10:15:26.408Z,70.18
2023-05-10T10:17:54.460Z,70.03
2023-05-10T10:20:22.422Z,69.04
2023-05-10T10:22:49.270Z,68.68
2023-05-10T10:25:19.872Z,68.01
2023-05-10T10:27:55.424Z,67.50
2023-05-10T10:30:40.197Z,67.72
2023-05-10T10:33:29.242Z,67.32
2023-05-10T10:35:59.017Z,66.39
2023-05-10T10:38:25.721Z,67.15
2023-05-10T10:41:11.862Z,65.14
2023-05-10T10:43:38.430Z,66.41
2023-05-10T10:46:18.702Z,67.51
2023-05-10T10:48:50.792Z,66.40
2023-05-10T10:51:17.565Z,65.57
2023-05-10T10:53:44.608Z,66.32
2023-05-10T10:56:14.690Z,65.47
2023-05-10T10:58:42.293Z,65.62
2023-05-10T11:01:14.504Z,65.68
2023-05-10T11:03:41.523Z,66.21
2023-05-10T11:06:08.943Z,63.66
2023-05-10T11:08:44.129Z,64.63
2023-05-10T11:11:10.830Z,65.54
2023-05-10T11:13:51.339Z,65.40
2023-05-10T11:16:26.255Z,66.22
2023-05-10T11:19:08.646Z,66.85
2023-05-10T11:22:11.485Z,66.57
2023-05-10T11:24:38.125Z,67.30
2023-05-10T11:27:04.695Z,66.56
2023-05-10T11:29:31.151Z,67.57
2023-05-10T11:32:01.028Z,67.92
2023-05-10T11:34:31.105Z,67.55
2023-05-10T11:36:58.667Z,67.44
2023-05-10T11:39:29.623Z,66.15
2023-05-10T11:41:57.375Z,66.95
2023-05-10T11:44:24.395Z,66.67
2023-05-10T11:46:51.043Z,66.87
2023-05-10T11:49:17.564Z,66.80
2023-05-10T11:51:44.622Z,66.07
2023-05-10T11:54:12.347Z,66.61
2023-05-10T11:56:40.034Z,66.57
2023-05-10T11:59:06.978Z,66.81
2023-05-10T12:01:33.994Z,67.32
2023-05-10T12:04:01.978Z,67.07
2023-05-10T12:06:31.946Z,66.68
2023-05-10T12:08:59.541Z,66.85
2023-05-10T12:11:28.152Z,65.67
2023-05-10T12:13:55.713Z,65.57
2023-05-10T12:16:30.508Z,65.48
2023-05-10T12:18:59.754Z,65.55
2023-05-10T12:21:28.452Z,65.36
2023-05-10T12:24:00.194Z,65.27
2023-05-10T12:26:27.479Z,65.22
2023-05-10T12:29:13.348Z,65.28
2023-05-10T12:31:54.912Z,64.93
2023-05-10T12:34:31.263Z,65.34
2023-05-10T12:36:58.076Z,65.87
2023-05-10T12:39:25.294Z,65.18
2023-05-10T12:41:52.661Z,66.44
2023-05-10T12:44:19.506Z,66.27
2023-05-10T12:46:45.970Z,66.55
2023-05-10T12:49:12.396Z,66.96
2023-05-10T12:51:38.865Z,67.63
2023-05-10T12:54:05.913Z,68.22
2023-05-10T12:56:32.346Z,68.32
2023-05-10T12:58:58.769Z,68.76
2023-05-10T13:01:25.399Z,69.11
2023-05-10T13:03:52.051Z,68.99
2023-05-10T13:06:18.460Z,69.61
2023-05-10T13:08:44.873Z,69.89
2023-05-10T13:11:11.245Z,70.52
2023-05-10T13:13:37.650Z,71.15
2023-05-10T13:16:04.199Z,71.40
2023-05-10T13:18:30.846Z,71.54
2023-05-10T13:20:57.350Z,71.43
2023-05-10T13:23:23.801Z,71.57
2023-05-10T13:25:50.632Z,71.69
2023-05-10T13:28:17.030Z,71.67
2023-05-10T13:30:43.487Z,71.85
2023-05-10T13:33:09.893Z,71.50
2023-05-10T13:35:36.652Z,71.46
2023-05-10T13:38:03.103Z,71.10
2023-05-10T13:40:29.637Z,70.70
2023-05-10T13:42:56.102Z,70.44
2023-05-10T13:45:22.666Z,69.69
2023-05-10T13:47:49.053Z,69.45
2023-05-10T13:50:15.706Z,68.82
2023-05-10T13:52:42.076Z,68.54
2023-05-10T13:55:08.972Z,68.87
2023-05-10T13:57:36.740Z,67.88
2023-05-10T14:00:03.455Z,68.12
2023-05-10T14:02:30.043Z,67.33
2023-05-10T14:04:56.565Z,67.67
2023-05-10T14:07:22.987Z,67.62
2023-05-10T14:09:49.590Z,67.15
2023-05-10T14:12:16.250Z,66.84
2023-05-10T14:14:42.838Z,67.12
2023-05-10T14:17:11.421Z,66.00
2023-05-10T14:19:39.756Z,65.28
2023-05-10T14:22:06.468Z,66.33
2023-05-10T14:24:33.378Z,66.27
2023-05-10T14:26:59.876Z,66.21
2023-05-10T14:29:26.407Z,66.23
2023-05-10T14:31:52.896Z,65.08
2023-05-10T14:34:19.376Z,63.97
2023-05-10T14:36:45.803Z,64.37
2023-05-10T14:39:13.753Z,65.67
2023-05-10T14:41:42.495Z,65.20
2023-05-10T14:44:08.936Z,65.23
2023-05-10T14:46:36.060Z,64.94
2023-05-10T14:49:02.519Z,65.08
2023-05-10T14:51:28.991Z,65.13
2023-05-10T14:53:55.440Z,64.98
2023-05-10T14:56:22.513Z,65.36
2023-05-10T14:58:50.832Z,66.09
2023-05-10T15:01:17.286Z,66.33
2023-05-10T15:03:44.022Z,66.39
2023-05-10T15:06:11.592Z,66.95
2023-05-10T15:08:38.007Z,67.05
2023-05-10T15:11:04.437Z,66.75
2023-05-10T15:13:30.817Z,67.36
2023-05-10T15:15:57.368Z,66.92
2023-05-10T15:18:26.300Z,66.69
2023-05-10T15:20:52.758Z,66.08
2023-05-10T15:23:19.177Z,65.29
2023-05-10T15:25:45.553Z,64.76
2023-05-10T15:28:11.982Z,65.11
2023-05-10T15:30:38.671Z,64.10
2023-05-10T15:33:05.216Z,65.18
2023-05-10T15:35:31.714Z,64.59
2023-05-10T15:37:58.137Z,64.03
2023-05-10T15:40:24.568Z,64.53
2023-05-10T15:42:50.955Z,64.46
2023-05-10T15:45:17.621Z,64.33
2023-05-10T15:47:45.035Z,63.96
2023-05-10T15:50:12.440Z,64.37
2023-05-10T15:52:38.852Z,64.03
2023-05-10T15:55:12.558Z,64.71
2023-05-10T15:57:40.420Z,64.73
2023-05-10T16:00:10.677Z,64.56
2023-05-10T16:02:37.562Z,64.02
2023-05-10T16:05:05.318Z,63.66
2023-05-10T16:07:32.131Z,64.32
2023-05-10T16:09:58.656Z,64.62
2023-05-10T16:12:25.268Z,64.88
2023-05-10T16:14:52.038Z,64.60
2023-05-10T16:17:20.371Z,64.73
2023-05-10T16:19:47.420Z,65.53
2023-05-10T16:22:14.377Z,65.16
2023-05-10T16:24:41.631Z,65.18
2023-05-10T16:27:08.174Z,65.48
2023-05-10T16:29:34.699Z,65.82
2023-05-10T16:32:01.626Z,66.13
2023-05-10T16:34:28.033Z,66.37
2023-05-10T16:36:54.428Z,66.32
2023-05-10T16:39:21.295Z,66.43
2023-05-10T16:41:47.712Z,66.71
2023-05-10T16:44:14.246Z,66.42
2023-05-10T16:46:40.834Z,67.53
2023-05-10T16:49:07.287Z,67.79
2023-05-10T16:51:33.707Z,68.19
2023-05-10T16:54:00.212Z,68.68
2023-05-10T16:56:26.819Z,69.22
2023-05-10T16:58:54.029Z,69.04
2023-05-10T17:01:20.501Z,69.05
2023-05-10T17:03:47.197Z,69.60
2023-05-10T17:06:14.174Z,69.61
2023-05-10T17:08:40.573Z,69.80
2023-05-10T17:11:06.980Z,70.11
2023-05-10T17:13:33.401Z,70.30
2023-05-10T17:16:03.638Z,69.90
2023-05-10T17:18:30.838Z,70.38
2023-05-10T17:20:57.269Z,69.98
2023-05-10T17:23:23.703Z,69.91
2023-05-10T17:25:50.129Z,70.03
2023-05-10T17:28:16.567Z,70.57
2023-05-10T17:30:43.029Z,70.21
2023-05-10T17:33:09.428Z,70.21
2023-05-10T17:35:35.907Z,70.48
2023-05-10T17:38:02.655Z,70.60
2023-05-10T17:40:29.311Z,70.78
2023-05-10T17:42:55.972Z,70.78
2023-05-10T17:45:22.898Z,70.80
2023-05-10T17:47:49.565Z,70.95
2023-05-10T17:50:16.100Z,70.96
2023-05-10T17:52:42.497Z,70.98
2023-05-10T17:55:09.163Z,70.92
2023-05-10T17:57:38.066Z,71.03
2023-05-10T18:00:06.542Z,71.17
2023-05-10T18:02:33.012Z,71.39
2023-05-10T18:05:01.236Z,71.44
2023-05-10T18:07:29.947Z,71.64
2023-05-10T18:10:01.080Z,71.82
2023-05-10T18:12:27.580Z,71.48
2023-05-10T18:14:53.983Z,71.04
2023-05-10T18:17:20.394Z,71.07
2023-05-10T18:19:46.812Z,71.07
2023-05-10T18:22:13.528Z,71.52
2023-05-10T18:24:40.413Z,71.55
2023-05-10T18:27:08.649Z,71.03
2023-05-10T18:29:36.093Z,71.09
2023-05-10T18:32:02.555Z,71.19
2023-05-10T18:34:28.993Z,71.34
2023-05-10T18:36:55.848Z,71.25
2023-05-10T18:39:22.302Z,71.59
2023-05-10T18:41:50.148Z,71.37
2023-05-10T18:44:16.582Z,71.67
2023-05-10T18:46:43.043Z,71.57
2023-05-10T18:49:09.568Z,72.23
2023-05-10T18:51:36.026Z,71.87
2023-05-10T18:54:04.461Z,72.09
2023-05-10T18:56:30.939Z,72.10
2023-05-10T18:58:57.348Z,72.10
2023-05-10T19:01:23.820Z,72.20
2023-05-10T19:03:50.328Z,72.11
2023-05-10T19:06:16.793Z,72.44
2023-05-10T19:08:43.187Z,72.42
2023-05-10T19:11:09.651Z,72.29
2023-05-10T19:13:36.145Z,72.55
2023-05-10T19:16:05.932Z,72.69
2023-05-10T19:18:32.974Z,72.57
2023-05-10T19:21:02.328Z,72.81
2023-05-10T19:23:30.041Z,72.84
2023-05-10T19:25:56.546Z,73.01
2023-05-10T19:28:23.047Z,72.87
2023-05-10T19:30:50.284Z,72.75
2023-05-10T19:33:18.457Z,72.80
2023-05-10T19:35:45.271Z,73.01
2023-05-10T19:38:11.919Z,73.10
2023-05-10T19:40:38.472Z,73.12
2023-05-10T19:43:04.914Z,73.16
2023-05-10T19:45:31.380Z,73.13
2023-05-10T19:47:57.813Z,73.40
2023-05-10T19:50:24.281Z,73.10
2023-05-10T19:52:53.559Z,73.09
2023-05-10T19:55:27.569Z,73.26
2023-05-10T19:57:54.009Z,73.15
2023-05-10T20:00:20.630Z,73.29
2023-05-10T20:02:47.213Z,73.21
2023-05-10T20:05:13.722Z,73.40
2023-05-10T20:07:40.156Z,73.64
2023-05-10T20:10:07.170Z,73.51
2023-05-10T20:12:33.947Z,73.56
2023-05-10T20:15:00.393Z,73.69
2023-05-10T20:17:26.864Z,73.88
2023-05-10T20:19:53.311Z,73.87
2023-05-10T20:22:19.787Z,73.87
2023-05-10T20:24:47.532Z,73.80
2023-05-10T20:27:13.935Z,74.19
2023-05-10T20:29:40.347Z,73.92
2023-05-10T20:32:06.870Z,74.29
2023-05-10T20:34:34.694Z,74.64
2023-05-10T20:37:01.204Z,74.67
2023-05-10T20:39:27.693Z,74.79
2023-05-10T20:41:54.662Z,74.71
2023-05-10T20:44:21.048Z,74.85
2023-05-10T20:46:47.998Z,74.96
2023-05-10T20:49:14.407Z,74.84
2023-05-10T20:51:40.828Z,74.79
2023-05-10T20:54:07.254Z,74.91
2023-05-10T20:56:33.999Z,74.92
2023-05-10T20:59:00.535Z,75.01
2023-05-10T21:01:26.964Z,75.19
2023-05-10T21:03:53.408Z,75.09
2023-05-10T21:06:19.987Z,75.12
2023-05-10T21:08:46.722Z,75.18
2023-05-10T21:11:13.209Z,75.39
2023-05-10T21:13:39.702Z,75.22
2023-05-10T21:16:06.274Z,75.42
2023-05-10T21:18:32.769Z,75.37
2023-05-10T21:20:59.848Z,75.37
2023-05-10T21:23:26.334Z,75.24
2023-05-10T21:25:53.552Z,75.26
2023-05-10T21:28:20.073Z,75.27
2023-05-10T21:30:46.534Z,75.41
2023-05-10T21:33:13.044Z,75.67
2023-05-10T21:35:42.700Z,75.62
2023-05-10T21:38:09.808Z,75.52
2023-05-10T21:40:36.394Z,75.50
2023-05-10T21:43:02.816Z,75.64
2023-05-10T21:45:32.693Z,75.77
2023-05-10T21:48:00.061Z,75.88
2023-05-10T21:50:27.076Z,76.10
2023-05-10T21:52:53.522Z,75.75
2023-05-10T21:55:20.170Z,75.79
2023-05-10T21:57:46.723Z,75.70
2023-05-10T22:00:13.787Z,75.73
2023-05-10T22:02:40.577Z,75.84
2023-05-10T22:05:07.417Z,75.75
2023-05-10T22:07:34.202Z,75.73
2023-05-10T22:10:00.888Z,75.76
2023-05-10T22:12:27.361Z,75.55
2023-05-10T22:15:06.479Z,75.56
2023-05-10T22:17:38.690Z,75.80
2023-05-10T22:20:07.281Z,75.94
2023-05-10T22:22:33.788Z,75.94
2023-05-10T22:25:00.267Z,76.20
2023-05-10T22:27:26.711Z,76.12
2023-05-10T22:29:53.200Z,76.12
2023-05-10T22:32:19.788Z,76.06
2023-05-10T22:34:46.281Z,76.27
2023-05-10T22:37:14.813Z,76.31
2023-05-10T22:39:41.324Z,76.06
2023-05-10T22:42:08.120Z,76.08
2023-05-10T22:44:34.549Z,76.10
2023-05-10T22:47:00.983Z,76.39
2023-05-10T22:49:27.409Z,76.29
2023-05-10T22:51:53.873Z,76.47
2023-05-10T22:54:20.306Z,76.17
2023-05-10T22:56:46.734Z,76.27
2023-05-10T22:59:13.167Z,76.54
2023-05-10T23:01:39.580Z,76.62
2023-05-10T23:04:06.891Z,76.60
2023-05-10T23:06:33.382Z,76.67
2023-05-10T23:08:59.895Z,76.56
2023-05-10T23:11:26.393Z,76.60
2023-05-10T23:13:52.963Z,76.66
2023-05-10T23:16:19.532Z,76.70
2023-05-10T23:18:46.041Z,76.71
2023-05-10T23:21:12.512Z,76.71
2023-05-10T23:23:38.961Z,76.75
2023-05-10T23:26:05.485Z,76.83
2023-05-10T23:28:32.456Z,76.95
2023-05-10T23:30:59.088Z,77.17
2023-05-10T23:33:26.843Z,77.08
2023-05-10T23:35:54.078Z,77.23
2023-05-10T23:38:21.246Z,77.31
2023-05-10T23:40:49.548Z,77.25
2023-05-10T23:43:17.720Z,77.15
2023-05-10T23:45:52.509Z,77.57
2023-05-10T23:48:19.059Z,77.37
2023-05-10T23:50:45.504Z,77.39
2023-05-10T23:53:12.038Z,77.24
2023-05-10T23:55:38.497Z,77.31
2023-05-10T23:58:05.740Z,77.42
